PWSweather.com
Personal Weather Stations
Station Observations
MIKESPOST
YorkGB

YorkGB

Lat: 53.9577018, Lon: -1.0822855

Elevation: 0

Station Type: WH1081

High Low Average
Temperature 53.8°F12.1°C 31.1°F-0.5°C 37.4°F3.0°C
Dew Point 46.6°F8.1°C 29.2°F-1.6°C 34.9°F1.6°C
Winds 4.6 mph 7.4 kmh Calm Calm 1.0 mph SSE1.6 kmh SSE
Wind Gusts 6.7 mph10.8 kmh -- 3.0 mph4.8 kmh
Humidity 98% 63% 91%
Pressure 29.67 in1004.7 mb 29.48 in998.3 mb -
Precipitation 0.01 in0.3 mm - -
Hour Temp Dew Point Humidity Winds Wind Gusts Pressure Precip Precip Rate Daily Precip Total
12:07 AM 32.0°F0.0°C 29.7°F-1.3°C 91% 1.5 mph SE2.4 kmh SE 3.4 mph5.5 kmh 29.51 in999.3 mb 0.00 in0.0 mm 0.00 in/hr0.0 mm/hr 0.00 in0.0 mm
12:17 AM 33.1°F0.6°C 31.0°F-0.6°C 92% 3.7 mph E6.0 kmh E 5.7 mph9.2 kmh 29.52 in999.7 mb 0.00 in0.0 mm 0.00 in/hr0.0 mm/hr 0.00 in0.0 mm
12:27 AM 33.4°F0.8°C 31.4°F-0.3°C 92% 2.8 mph SE4.5 kmh SE 4.7 mph7.6 kmh 29.51 in999.3 mb 0.00 in0.0 mm 0.00 in/hr0.0 mm/hr 0.00 in0.0 mm
12:37 AM 33.4°F0.8°C 31.4°F-0.3°C 92% 2.5 mph SSE4.0 kmh SSE 5.7 mph9.2 kmh 29.51 in999.3 mb 0.00 in0.0 mm 0.00 in/hr0.0 mm/hr 0.00 in0.0 mm
12:47 AM 33.4°F0.8°C 31.4°F-0.3°C 92% 2.8 mph SSE4.5 kmh SSE 6.7 mph10.8 kmh 29.51 in999.3 mb 0.00 in0.0 mm 0.00 in/hr0.0 mm/hr 0.00 in0.0 mm
12:57 AM 33.3°F0.7°C 31.2°F-0.4°C 92% 2.0 mph SSE3.2 kmh SSE 3.4 mph5.5 kmh 29.51 in999.3 mb 0.00 in0.0 mm 0.00 in/hr0.0 mm/hr 0.00 in0.0 mm
01:07 AM 32.7°F0.4°C 30.7°F-0.7°C 92% 0.7 mph S1.1 kmh S 2.3 mph3.7 kmh 29.50 in999.0 mb 0.00 in0.0 mm 0.00 in/hr0.0 mm/hr 0.00 in0.0 mm
01:17 AM 32.4°F0.2°C 30.3°F-0.9°C 92% 0.1 mph SE0.2 kmh SE 1.0 mph1.6 kmh 29.50 in999.0 mb 0.00 in0.0 mm 0.00 in/hr0.0 mm/hr 0.00 in0.0 mm
01:27 AM 32.0°F0.0°C 30.0°F-1.1°C 92% 0.2 mph S0.3 kmh S 1.0 mph1.6 kmh 29.50 in999.0 mb 0.00 in0.0 mm 0.00 in/hr0.0 mm/hr 0.00 in0.0 mm
01:37 AM 31.6°F-0.2°C 29.6°F-1.3°C 92% 1.1 mph SSE1.8 kmh SSE 2.3 mph3.7 kmh 29.50 in999.0 mb 0.00 in0.0 mm 0.00 in/hr0.0 mm/hr 0.00 in0.0 mm
01:47 AM 31.3°F-0.4°C 29.2°F-1.6°C 92% 0.6 mph SW1.0 kmh SW 2.3 mph3.7 kmh 29.50 in999.0 mb 0.00 in0.0 mm 0.00 in/hr0.0 mm/hr 0.00 in0.0 mm
01:57 AM 31.5°F-0.3°C 29.7°F-1.3°C 93% 0.6 mph S1.0 kmh S 2.3 mph3.7 kmh 29.49 in998.6 mb 0.00 in0.0 mm 0.00 in/hr0.0 mm/hr 0.00 in0.0 mm
02:07 AM 31.1°F-0.5°C 29.3°F-1.5°C 93% 0.3 mph SSW0.5 kmh SSW 1.0 mph1.6 kmh 29.49 in998.6 mb 0.00 in0.0 mm 0.00 in/hr0.0 mm/hr 0.00 in0.0 mm
02:17 AM 31.1°F-0.5°C 29.3°F-1.5°C 93% 1.3 mph SSE2.1 kmh SSE 2.3 mph3.7 kmh 29.50 in999.0 mb 0.00 in0.0 mm 0.00 in/hr0.0 mm/hr 0.00 in0.0 mm
02:27 AM 31.6°F-0.2°C 30.1°F-1.1°C 94% 3.7 mph S6.0 kmh S 5.7 mph9.2 kmh 29.50 in999.0 mb 0.00 in0.0 mm 0.00 in/hr0.0 mm/hr 0.00 in0.0 mm
02:37 AM 32.2°F0.1°C 30.9°F-0.6°C 95% 3.3 mph SSE5.3 kmh SSE 5.7 mph9.2 kmh 29.49 in998.6 mb 0.00 in0.0 mm 0.00 in/hr0.0 mm/hr 0.00 in0.0 mm
02:47 AM 32.4°F0.2°C 31.1°F-0.5°C 95% 2.4 mph SSE3.9 kmh SSE 4.7 mph7.6 kmh 29.49 in998.6 mb 0.00 in0.0 mm 0.00 in/hr0.0 mm/hr 0.00 in0.0 mm
02:57 AM 32.5°F0.3°C 31.3°F-0.4°C 95% 4.2 mph S6.8 kmh S 6.7 mph10.8 kmh 29.49 in998.6 mb 0.00 in0.0 mm 0.00 in/hr0.0 mm/hr 0.00 in0.0 mm
03:07 AM 32.7°F0.4°C 31.7°F-0.2°C 96% 3.8 mph SSE6.1 kmh SSE 5.7 mph9.2 kmh 29.49 in998.6 mb 0.00 in0.0 mm 0.00 in/hr0.0 mm/hr 0.00 in0.0 mm
03:17 AM 32.9°F0.5°C 31.9°F-0.1°C 96% 4.6 mph S7.4 kmh S 6.7 mph10.8 kmh 29.49 in998.6 mb 0.00 in0.0 mm 0.00 in/hr0.0 mm/hr 0.00 in0.0 mm
03:27 AM 32.9°F0.5°C 31.9°F-0.1°C 96% 2.6 mph S4.2 kmh S 4.7 mph7.6 kmh 29.49 in998.6 mb 0.00 in0.0 mm 0.00 in/hr0.0 mm/hr 0.00 in0.0 mm
03:37 AM 32.7°F0.4°C 31.7°F-0.2°C 96% 3.3 mph S5.3 kmh S 4.7 mph7.6 kmh 29.49 in998.6 mb 0.00 in0.0 mm 0.00 in/hr0.0 mm/hr 0.00 in0.0 mm
03:47 AM 32.9°F0.5°C 31.9°F-0.1°C 96% 3.6 mph SE5.8 kmh SE 5.7 mph9.2 kmh 29.49 in998.6 mb 0.00 in0.0 mm 0.00 in/hr0.0 mm/hr 0.00 in0.0 mm
03:57 AM 33.3°F0.7°C 32.3°F0.2°C 96% 3.8 mph SSE6.1 kmh SSE 5.7 mph9.2 kmh 29.49 in998.6 mb 0.00 in0.0 mm 0.00 in/hr0.0 mm/hr 0.00 in0.0 mm
04:07 AM 33.3°F0.7°C 32.3°F0.2°C 96% 4.2 mph SSE6.8 kmh SSE 5.7 mph9.2 kmh 29.49 in998.6 mb 0.00 in0.0 mm 0.00 in/hr0.0 mm/hr 0.00 in0.0 mm
04:17 AM 33.4°F0.8°C 32.4°F0.2°C 96% 2.5 mph S4.0 kmh S 3.4 mph5.5 kmh 29.49 in998.6 mb 0.00 in0.0 mm 0.00 in/hr0.0 mm/hr 0.00 in0.0 mm
04:27 AM 33.4°F0.8°C 32.4°F0.2°C 96% 2.9 mph SSE4.7 kmh SSE 3.4 mph5.5 kmh 29.49 in998.6 mb 0.00 in0.0 mm 0.00 in/hr0.0 mm/hr 0.00 in0.0 mm
04:37 AM 33.1°F0.6°C 32.1°F0.1°C 96% 3.3 mph S5.3 kmh S 4.7 mph7.6 kmh 29.48 in998.3 mb 0.00 in0.0 mm 0.00 in/hr0.0 mm/hr 0.00 in0.0 mm
04:47 AM 32.9°F0.5°C 31.9°F-0.1°C 96% 2.7 mph S4.3 kmh S 4.7 mph7.6 kmh 29.49 in998.6 mb 0.00 in0.0 mm 0.00 in/hr0.0 mm/hr 0.00 in0.0 mm
04:57 AM 33.1°F0.6°C 32.1°F0.1°C 96% 1.4 mph S2.3 kmh S 2.3 mph3.7 kmh 29.49 in998.6 mb 0.00 in0.0 mm 0.00 in/hr0.0 mm/hr 0.00 in0.0 mm
05:07 AM 33.1°F0.6°C 32.1°F0.1°C 96% 2.6 mph S4.2 kmh S 4.7 mph7.6 kmh 29.49 in998.6 mb 0.00 in0.0 mm 0.00 in/hr0.0 mm/hr 0.00 in0.0 mm
05:17 AM 33.3°F0.7°C 32.3°F0.2°C 96% 2.0 mph S3.2 kmh S 3.4 mph5.5 kmh 29.49 in998.6 mb 0.00 in0.0 mm 0.00 in/hr0.0 mm/hr 0.00 in0.0 mm
05:27 AM 33.3°F0.7°C 32.3°F0.2°C 96% 1.8 mph S2.9 kmh S 2.3 mph3.7 kmh 29.49 in998.6 mb 0.00 in0.0 mm 0.00 in/hr0.0 mm/hr 0.00 in0.0 mm
05:37 AM 33.3°F0.7°C 32.3°F0.2°C 96% 2.3 mph SE3.7 kmh SE 3.4 mph5.5 kmh 29.49 in998.6 mb 0.00 in0.0 mm 0.00 in/hr0.0 mm/hr 0.00 in0.0 mm
05:47 AM 33.3°F0.7°C 32.3°F0.2°C 96% 1.1 mph S1.8 kmh S 2.3 mph3.7 kmh 29.49 in998.6 mb 0.00 in0.0 mm 0.00 in/hr0.0 mm/hr 0.00 in0.0 mm
05:57 AM 33.4°F0.8°C 32.4°F0.2°C 96% 0.6 mph SW1.0 kmh SW 2.3 mph3.7 kmh 29.49 in998.6 mb 0.00 in0.0 mm 0.00 in/hr0.0 mm/hr 0.00 in0.0 mm
06:07 AM 33.4°F0.8°C 32.4°F0.2°C 96% 1.6 mph S2.6 kmh S 2.3 mph3.7 kmh 29.50 in999.0 mb 0.00 in0.0 mm 0.00 in/hr0.0 mm/hr 0.00 in0.0 mm
06:17 AM 33.6°F0.9°C 32.6°F0.3°C 96% 1.7 mph SSE2.7 kmh SSE 2.3 mph3.7 kmh 29.50 in999.0 mb 0.00 in0.0 mm 0.00 in/hr0.0 mm/hr 0.00 in0.0 mm
06:27 AM 33.6°F0.9°C 32.6°F0.3°C 96% 1.1 mph S1.8 kmh S 2.3 mph3.7 kmh 29.51 in999.3 mb 0.00 in0.0 mm 0.00 in/hr0.0 mm/hr 0.00 in0.0 mm
06:37 AM 33.6°F0.9°C 32.6°F0.3°C 96% Calm Calm -- 29.51 in999.3 mb 0.00 in0.0 mm 0.00 in/hr0.0 mm/hr 0.00 in0.0 mm
06:47 AM 33.6°F0.9°C 32.6°F0.3°C 96% Calm Calm -- 29.51 in999.3 mb 0.00 in0.0 mm 0.00 in/hr0.0 mm/hr 0.00 in0.0 mm
06:57 AM 33.8°F1.0°C 32.8°F0.4°C 96% 0.3 mph SSW0.5 kmh SSW 1.0 mph1.6 kmh 29.52 in999.7 mb 0.00 in0.0 mm 0.00 in/hr0.0 mm/hr 0.00 in0.0 mm
07:07 AM 33.8°F1.0°C 32.8°F0.4°C 96% 0.5 mph SW0.8 kmh SW 2.3 mph3.7 kmh 29.52 in999.7 mb 0.00 in0.0 mm 0.00 in/hr0.0 mm/hr 0.00 in0.0 mm
07:17 AM 33.8°F1.0°C 32.8°F0.4°C 96% 0.8 mph SW1.3 kmh SW 2.3 mph3.7 kmh 29.52 in999.7 mb 0.00 in0.0 mm 0.00 in/hr0.0 mm/hr 0.00 in0.0 mm
07:27 AM 33.8°F1.0°C 32.8°F0.4°C 96% 0.3 mph SW0.5 kmh SW 1.0 mph1.6 kmh 29.53 in1000.0 mb 0.00 in0.0 mm 0.00 in/hr0.0 mm/hr 0.00 in0.0 mm
07:37 AM 34.0°F1.1°C 33.0°F0.6°C 96% Calm Calm -- 29.53 in1000.0 mb 0.00 in0.0 mm 0.00 in/hr0.0 mm/hr 0.00 in0.0 mm
07:47 AM 34.0°F1.1°C 33.0°F0.6°C 96% Calm Calm -- 29.54 in1000.3 mb 0.00 in0.0 mm 0.00 in/hr0.0 mm/hr 0.00 in0.0 mm
07:57 AM 34.0°F1.1°C 33.0°F0.6°C 96% 0.4 mph NW0.6 kmh NW 1.0 mph1.6 kmh 29.54 in1000.3 mb 0.00 in0.0 mm 0.00 in/hr0.0 mm/hr 0.00 in0.0 mm
08:07 AM 34.0°F1.1°C 33.0°F0.6°C 96% 0.2 mph N0.3 kmh N 1.0 mph1.6 kmh 29.55 in1000.7 mb 0.00 in0.0 mm 0.00 in/hr0.0 mm/hr 0.00 in0.0 mm
08:17 AM 33.8°F1.0°C 32.8°F0.4°C 96% 0.2 mph NW0.3 kmh NW 1.0 mph1.6 kmh 29.55 in1000.7 mb 0.00 in0.0 mm 0.00 in/hr0.0 mm/hr 0.00 in0.0 mm
08:27 AM 33.8°F1.0°C 32.8°F0.4°C 96% 0.2 mph N0.3 kmh N 1.0 mph1.6 kmh 29.56 in1001.0 mb 0.00 in0.0 mm 0.00 in/hr0.0 mm/hr 0.00 in0.0 mm
08:37 AM 33.8°F1.0°C 32.8°F0.4°C 96% Calm Calm -- 29.56 in1001.0 mb 0.00 in0.0 mm 0.00 in/hr0.0 mm/hr 0.00 in0.0 mm
08:47 AM 33.6°F0.9°C 32.6°F0.3°C 96% Calm Calm -- 29.57 in1001.4 mb 0.00 in0.0 mm 0.00 in/hr0.0 mm/hr 0.00 in0.0 mm
08:57 AM 33.8°F1.0°C 32.8°F0.4°C 96% 0.2 mph SW0.3 kmh SW 1.0 mph1.6 kmh 29.57 in1001.4 mb 0.00 in0.0 mm 0.00 in/hr0.0 mm/hr 0.00 in0.0 mm
09:07 AM 33.8°F1.0°C 32.8°F0.4°C 96% 0.7 mph W1.1 kmh W 2.3 mph3.7 kmh 29.57 in1001.4 mb 0.00 in0.0 mm 0.00 in/hr0.0 mm/hr 0.00 in0.0 mm
09:17 AM 34.0°F1.1°C 33.0°F0.6°C 96% 0.6 mph NW1.0 kmh NW 1.0 mph1.6 kmh 29.59 in1002.0 mb 0.01 in0.3 mm 0.06 in/hr1.5 mm/hr 0.01 in0.3 mm
09:27 AM 34.2°F1.2°C 33.1°F0.6°C 96% 0.6 mph W1.0 kmh W 1.0 mph1.6 kmh 29.58 in1001.7 mb 0.01 in0.3 mm 0.00 in/hr0.0 mm/hr 0.01 in0.3 mm
09:37 AM 34.2°F1.2°C 33.1°F0.6°C 96% 0.5 mph SE0.8 kmh SE 3.4 mph5.5 kmh 29.59 in1002.0 mb 0.01 in0.3 mm 0.00 in/hr0.0 mm/hr 0.01 in0.3 mm
09:47 AM 35.8°F2.1°C 35.0°F1.7°C 97% Calm Calm -- 29.59 in1002.0 mb 0.01 in0.3 mm 0.00 in/hr0.0 mm/hr 0.01 in0.3 mm
09:57 AM 37.2°F2.9°C 36.5°F2.5°C 97% 0.3 mph S0.5 kmh S 1.0 mph1.6 kmh 29.60 in1002.4 mb 0.01 in0.3 mm 0.00 in/hr0.0 mm/hr 0.01 in0.3 mm
10:07 AM 37.2°F2.9°C 36.2°F2.3°C 96% 0.6 mph WSW1.0 kmh WSW 2.3 mph3.7 kmh 29.60 in1002.4 mb 0.01 in0.3 mm 0.00 in/hr0.0 mm/hr 0.01 in0.3 mm
10:17 AM 37.0°F2.8°C 36.0°F2.2°C 96% Calm Calm -- 29.61 in1002.7 mb 0.00 in0.0 mm 0.00 in/hr0.0 mm/hr 0.01 in0.3 mm
10:27 AM 37.2°F2.9°C 36.2°F2.3°C 96% 0.3 mph S0.5 kmh S 1.0 mph1.6 kmh 29.62 in1003.0 mb 0.00 in0.0 mm 0.00 in/hr0.0 mm/hr 0.01 in0.3 mm
10:37 AM 40.8°F4.9°C 40.3°F4.6°C 98% 0.3 mph SW0.5 kmh SW 1.0 mph1.6 kmh 29.62 in1003.0 mb 0.00 in0.0 mm 0.00 in/hr0.0 mm/hr 0.01 in0.3 mm
10:47 AM 46.9°F8.3°C 45.9°F7.7°C 96% 0.2 mph WNW0.3 kmh WNW 1.0 mph1.6 kmh 29.62 in1003.0 mb 0.00 in0.0 mm 0.00 in/hr0.0 mm/hr 0.01 in0.3 mm
10:57 AM 50.0°F10.0°C 46.0°F7.8°C 86% 0.9 mph N1.4 kmh N 2.3 mph3.7 kmh 29.62 in1003.0 mb 0.00 in0.0 mm 0.00 in/hr0.0 mm/hr 0.01 in0.3 mm
11:07 AM 51.6°F10.9°C 46.6°F8.1°C 83% 0.8 mph NW1.3 kmh NW 2.3 mph3.7 kmh 29.63 in1003.4 mb 0.00 in0.0 mm 0.00 in/hr0.0 mm/hr 0.01 in0.3 mm
11:17 AM 51.8°F11.0°C 42.5°F5.8°C 71% 1.6 mph N2.6 kmh N 3.4 mph5.5 kmh 29.63 in1003.4 mb 0.00 in0.0 mm 0.00 in/hr0.0 mm/hr 0.01 in0.3 mm
11:27 AM 52.3°F11.3°C 43.1°F6.2°C 71% 1.4 mph NW2.3 kmh NW 2.3 mph3.7 kmh 29.62 in1003.0 mb 0.00 in0.0 mm 0.00 in/hr0.0 mm/hr 0.01 in0.3 mm
11:37 AM 52.3°F11.3°C 41.9°F5.5°C 68% 1.0 mph N1.6 kmh N 1.0 mph1.6 kmh 29.63 in1003.4 mb 0.00 in0.0 mm 0.00 in/hr0.0 mm/hr 0.01 in0.3 mm
11:47 AM 52.7°F11.5°C 41.8°F5.4°C 67% 1.4 mph E2.3 kmh E 3.4 mph5.5 kmh 29.63 in1003.4 mb 0.00 in0.0 mm 0.00 in/hr0.0 mm/hr 0.01 in0.3 mm
11:57 AM 53.8°F12.1°C 41.6°F5.3°C 64% 1.4 mph WSW2.3 kmh WSW 2.3 mph3.7 kmh 29.63 in1003.4 mb 0.00 in0.0 mm 0.00 in/hr0.0 mm/hr 0.01 in0.3 mm
12:07 PM 49.3°F9.6°C 36.9°F2.7°C 63% 1.4 mph W2.3 kmh W 4.7 mph7.6 kmh 29.63 in1003.4 mb 0.00 in0.0 mm 0.00 in/hr0.0 mm/hr 0.01 in0.3 mm
12:17 PM 44.8°F7.1°C 35.5°F1.9°C 70% 0.7 mph SSW1.1 kmh SSW 2.3 mph3.7 kmh 29.64 in1003.7 mb 0.00 in0.0 mm 0.00 in/hr0.0 mm/hr 0.01 in0.3 mm
12:27 PM 43.0°F6.1°C 35.5°F1.9°C 75% 0.2 mph WNW0.3 kmh WNW 1.0 mph1.6 kmh 29.64 in1003.7 mb 0.00 in0.0 mm 0.00 in/hr0.0 mm/hr 0.01 in0.3 mm
12:37 PM 42.6°F5.9°C 36.2°F2.3°C 78% 0.2 mph WNW0.3 kmh WNW 1.0 mph1.6 kmh 29.64 in1003.7 mb 0.00 in0.0 mm 0.00 in/hr0.0 mm/hr 0.01 in0.3 mm
12:47 PM 42.4°F5.8°C 36.7°F2.6°C 80% 1.6 mph S2.6 kmh S 3.4 mph5.5 kmh 29.64 in1003.7 mb 0.00 in0.0 mm 0.00 in/hr0.0 mm/hr 0.01 in0.3 mm
12:57 PM 43.0°F6.1°C 37.5°F3.1°C 81% 1.9 mph N3.1 kmh N 2.3 mph3.7 kmh 29.64 in1003.7 mb 0.00 in0.0 mm 0.00 in/hr0.0 mm/hr 0.01 in0.3 mm
01:07 PM 42.8°F6.0°C 37.7°F3.2°C 82% 2.3 mph SW3.7 kmh SW 5.7 mph9.2 kmh 29.64 in1003.7 mb 0.00 in0.0 mm 0.00 in/hr0.0 mm/hr 0.01 in0.3 mm
01:17 PM 43.0°F6.1°C 37.8°F3.2°C 82% 2.1 mph NNW3.4 kmh NNW 5.7 mph9.2 kmh 29.64 in1003.7 mb 0.00 in0.0 mm 0.00 in/hr0.0 mm/hr 0.01 in0.3 mm
01:27 PM 43.3°F6.3°C 38.2°F3.4°C 82% 2.9 mph N4.7 kmh N 5.7 mph9.2 kmh 29.65 in1004.1 mb 0.00 in0.0 mm 0.00 in/hr0.0 mm/hr 0.01 in0.3 mm
01:37 PM 43.0°F6.1°C 37.8°F3.2°C 82% 1.2 mph SSW1.9 kmh SSW 4.7 mph7.6 kmh 29.64 in1003.7 mb 0.00 in0.0 mm 0.00 in/hr0.0 mm/hr 0.01 in0.3 mm
01:47 PM 42.8°F6.0°C 38.0°F3.3°C 83% 2.3 mph ESE3.7 kmh ESE 3.4 mph5.5 kmh 29.65 in1004.1 mb 0.00 in0.0 mm 0.00 in/hr0.0 mm/hr 0.01 in0.3 mm
01:57 PM 42.8°F6.0°C 38.0°F3.3°C 83% 2.0 mph WSW3.2 kmh WSW 3.4 mph5.5 kmh 29.65 in1004.1 mb 0.00 in0.0 mm 0.00 in/hr0.0 mm/hr 0.01 in0.3 mm
02:07 PM 42.3°F5.7°C 37.5°F3.1°C 83% 2.1 mph WSW3.4 kmh WSW 5.7 mph9.2 kmh 29.65 in1004.1 mb 0.00 in0.0 mm 0.00 in/hr0.0 mm/hr 0.01 in0.3 mm
02:17 PM 41.7°F5.4°C 37.2°F2.9°C 84% 1.0 mph S1.6 kmh S 2.3 mph3.7 kmh 29.65 in1004.1 mb 0.00 in0.0 mm 0.00 in/hr0.0 mm/hr 0.01 in0.3 mm
02:27 PM 41.5°F5.3°C 37.4°F3.0°C 85% 1.4 mph S2.3 kmh S 2.3 mph3.7 kmh 29.65 in1004.1 mb 0.00 in0.0 mm 0.00 in/hr0.0 mm/hr 0.01 in0.3 mm
02:37 PM 41.2°F5.1°C 37.0°F2.8°C 85% 0.8 mph S1.3 kmh S 2.3 mph3.7 kmh 29.65 in1004.1 mb 0.00 in0.0 mm 0.00 in/hr0.0 mm/hr 0.01 in0.3 mm
02:47 PM 40.5°F4.7°C 36.6°F2.6°C 86% 1.1 mph SSE1.8 kmh SSE 2.3 mph3.7 kmh 29.65 in1004.1 mb 0.00 in0.0 mm 0.00 in/hr0.0 mm/hr 0.01 in0.3 mm
02:57 PM 39.7°F4.3°C 35.9°F2.2°C 86% 0.7 mph SW1.1 kmh SW 3.4 mph5.5 kmh 29.65 in1004.1 mb 0.00 in0.0 mm 0.00 in/hr0.0 mm/hr 0.01 in0.3 mm
03:07 PM 39.2°F4.0°C 35.7°F2.1°C 87% 0.1 mph NW0.2 kmh NW 1.0 mph1.6 kmh 29.66 in1004.4 mb 0.00 in0.0 mm 0.00 in/hr0.0 mm/hr 0.01 in0.3 mm
03:17 PM 39.0°F3.9°C 35.8°F2.1°C 88% 0.5 mph SSE0.8 kmh SSE 2.3 mph3.7 kmh 29.65 in1004.1 mb 0.00 in0.0 mm 0.00 in/hr0.0 mm/hr 0.01 in0.3 mm
03:27 PM 39.0°F3.9°C 36.1°F2.3°C 89% 1.5 mph SSE2.4 kmh SSE 4.7 mph7.6 kmh 29.65 in1004.1 mb 0.00 in0.0 mm 0.00 in/hr0.0 mm/hr 0.01 in0.3 mm
03:37 PM 38.8°F3.8°C 35.9°F2.2°C 89% 1.2 mph S1.9 kmh S 3.4 mph5.5 kmh 29.66 in1004.4 mb 0.00 in0.0 mm 0.00 in/hr0.0 mm/hr 0.01 in0.3 mm
03:47 PM 39.0°F3.9°C 36.3°F2.4°C 90% 2.5 mph SE4.0 kmh SE 5.7 mph9.2 kmh 29.66 in1004.4 mb 0.00 in0.0 mm 0.00 in/hr0.0 mm/hr 0.01 in0.3 mm
03:57 PM 39.4°F4.1°C 36.7°F2.6°C 90% 2.7 mph S4.3 kmh S 4.7 mph7.6 kmh 29.66 in1004.4 mb 0.00 in0.0 mm 0.00 in/hr0.0 mm/hr 0.01 in0.3 mm
04:07 PM 39.6°F4.2°C 36.9°F2.7°C 90% 2.6 mph ESE4.2 kmh ESE 4.7 mph7.6 kmh 29.66 in1004.4 mb 0.00 in0.0 mm 0.00 in/hr0.0 mm/hr 0.01 in0.3 mm
04:17 PM 39.6°F4.2°C 36.9°F2.7°C 90% 2.2 mph ENE3.5 kmh ENE 4.7 mph7.6 kmh 29.66 in1004.4 mb 0.00 in0.0 mm 0.00 in/hr0.0 mm/hr 0.01 in0.3 mm
04:27 PM 39.4°F4.1°C 36.7°F2.6°C 90% 2.2 mph SSE3.5 kmh SSE 4.7 mph7.6 kmh 29.67 in1004.7 mb 0.00 in0.0 mm 0.00 in/hr0.0 mm/hr 0.01 in0.3 mm
04:37 PM 39.4°F4.1°C 37.0°F2.8°C 91% 1.1 mph SSE1.8 kmh SSE 2.3 mph3.7 kmh 29.67 in1004.7 mb 0.00 in0.0 mm 0.00 in/hr0.0 mm/hr 0.01 in0.3 mm
04:47 PM 39.2°F4.0°C 36.8°F2.7°C 91% 2.3 mph SE3.7 kmh SE 3.4 mph5.5 kmh 29.66 in1004.4 mb 0.00 in0.0 mm 0.00 in/hr0.0 mm/hr 0.01 in0.3 mm
04:57 PM 39.4°F4.1°C 37.0°F2.8°C 91% 2.3 mph ESE3.7 kmh ESE 3.4 mph5.5 kmh 29.66 in1004.4 mb 0.00 in0.0 mm 0.00 in/hr0.0 mm/hr 0.01 in0.3 mm
05:07 PM 39.7°F4.3°C 37.6°F3.1°C 92% 1.7 mph E2.7 kmh E 2.3 mph3.7 kmh 29.66 in1004.4 mb 0.00 in0.0 mm 0.00 in/hr0.0 mm/hr 0.01 in0.3 mm
05:17 PM 40.3°F4.6°C 38.1°F3.4°C 92% 1.8 mph SE2.9 kmh SE 3.4 mph5.5 kmh 29.66 in1004.4 mb 0.00 in0.0 mm 0.00 in/hr0.0 mm/hr 0.01 in0.3 mm
05:27 PM 40.1°F4.5°C 37.7°F3.2°C 91% 1.1 mph W1.8 kmh W 2.3 mph3.7 kmh 29.65 in1004.1 mb 0.00 in0.0 mm 0.00 in/hr0.0 mm/hr 0.01 in0.3 mm
05:37 PM 39.9°F4.4°C 37.5°F3.1°C 91% 3.0 mph SE4.8 kmh SE 5.7 mph9.2 kmh 29.65 in1004.1 mb 0.00 in0.0 mm 0.00 in/hr0.0 mm/hr 0.01 in0.3 mm
05:47 PM 39.7°F4.3°C 37.3°F2.9°C 91% 2.0 mph ESE3.2 kmh ESE 3.4 mph5.5 kmh 29.65 in1004.1 mb 0.00 in0.0 mm 0.00 in/hr0.0 mm/hr 0.01 in0.3 mm
05:57 PM 39.6°F4.2°C 37.2°F2.9°C 91% 1.9 mph SE3.1 kmh SE 3.4 mph5.5 kmh 29.65 in1004.1 mb 0.00 in0.0 mm 0.00 in/hr0.0 mm/hr 0.01 in0.3 mm
06:07 PM 39.9°F4.4°C 37.8°F3.2°C 92% 2.2 mph SE3.5 kmh SE 3.4 mph5.5 kmh 29.65 in1004.1 mb 0.00 in0.0 mm 0.00 in/hr0.0 mm/hr 0.01 in0.3 mm
06:17 PM 39.9°F4.4°C 37.8°F3.2°C 92% 0.8 mph E1.3 kmh E 2.3 mph3.7 kmh 29.65 in1004.1 mb 0.00 in0.0 mm 0.00 in/hr0.0 mm/hr 0.01 in0.3 mm
06:27 PM 39.7°F4.3°C 37.6°F3.1°C 92% 0.8 mph S1.3 kmh S 2.3 mph3.7 kmh 29.65 in1004.1 mb 0.00 in0.0 mm 0.00 in/hr0.0 mm/hr 0.01 in0.3 mm
06:37 PM 39.6°F4.2°C 37.4°F3.0°C 92% 2.0 mph SSE3.2 kmh SSE 3.4 mph5.5 kmh 29.64 in1003.7 mb 0.00 in0.0 mm 0.00 in/hr0.0 mm/hr 0.01 in0.3 mm
06:47 PM 39.0°F3.9°C 36.9°F2.7°C 92% 1.5 mph ESE2.4 kmh ESE 3.4 mph5.5 kmh 29.63 in1003.4 mb 0.00 in0.0 mm 0.00 in/hr0.0 mm/hr 0.01 in0.3 mm
06:57 PM 38.3°F3.5°C 36.2°F2.3°C 92% 0.4 mph S0.6 kmh S 3.4 mph5.5 kmh 29.63 in1003.4 mb 0.00 in0.0 mm 0.00 in/hr0.0 mm/hr 0.01 in0.3 mm
07:07 PM 37.8°F3.2°C 35.7°F2.1°C 92% 0.4 mph S0.6 kmh S 2.3 mph3.7 kmh 29.63 in1003.4 mb 0.00 in0.0 mm 0.00 in/hr0.0 mm/hr 0.01 in0.3 mm
07:17 PM 37.4°F3.0°C 35.3°F1.8°C 92% 0.8 mph SE1.3 kmh SE 2.3 mph3.7 kmh 29.62 in1003.0 mb 0.00 in0.0 mm 0.00 in/hr0.0 mm/hr 0.01 in0.3 mm
07:27 PM 37.4°F3.0°C 35.3°F1.8°C 92% 2.2 mph SE3.5 kmh SE 4.7 mph7.6 kmh 29.62 in1003.0 mb 0.00 in0.0 mm 0.00 in/hr0.0 mm/hr 0.01 in0.3 mm
07:37 PM 37.8°F3.2°C 35.9°F2.2°C 93% 1.8 mph SE2.9 kmh SE 3.4 mph5.5 kmh 29.62 in1003.0 mb 0.00 in0.0 mm 0.00 in/hr0.0 mm/hr 0.01 in0.3 mm
07:47 PM 37.4°F3.0°C 35.6°F2.0°C 93% 1.1 mph SSE1.8 kmh SSE 3.4 mph5.5 kmh 29.61 in1002.7 mb 0.00 in0.0 mm 0.00 in/hr0.0 mm/hr 0.01 in0.3 mm
07:57 PM 37.4°F3.0°C 35.8°F2.1°C 94% 2.3 mph SSE3.7 kmh SSE 3.4 mph5.5 kmh 29.61 in1002.7 mb 0.00 in0.0 mm 0.00 in/hr0.0 mm/hr 0.01 in0.3 mm
08:07 PM 37.2°F2.9°C 35.4°F1.9°C 93% 1.5 mph SE2.4 kmh SE 3.4 mph5.5 kmh 29.60 in1002.4 mb 0.00 in0.0 mm 0.00 in/hr0.0 mm/hr 0.01 in0.3 mm
08:17 PM 36.9°F2.7°C 35.0°F1.7°C 93% 0.3 mph SE0.5 kmh SE 1.0 mph1.6 kmh 29.60 in1002.4 mb 0.00 in0.0 mm 0.00 in/hr0.0 mm/hr 0.01 in0.3 mm
08:27 PM 36.7°F2.6°C 35.1°F1.7°C 94% 1.4 mph SSE2.3 kmh SSE 3.4 mph5.5 kmh 29.60 in1002.4 mb 0.00 in0.0 mm 0.00 in/hr0.0 mm/hr 0.01 in0.3 mm
08:37 PM 36.9°F2.7°C 35.3°F1.8°C 94% 3.0 mph E4.8 kmh E 5.7 mph9.2 kmh 29.59 in1002.0 mb 0.00 in0.0 mm 0.00 in/hr0.0 mm/hr 0.01 in0.3 mm
08:47 PM 37.2°F2.9°C 35.7°F2.1°C 94% 3.3 mph ESE5.3 kmh ESE 5.7 mph9.2 kmh 29.59 in1002.0 mb 0.00 in0.0 mm 0.00 in/hr0.0 mm/hr 0.01 in0.3 mm
08:57 PM 37.8°F3.2°C 36.2°F2.3°C 94% 4.0 mph ENE6.4 kmh ENE 5.7 mph9.2 kmh 29.58 in1001.7 mb 0.00 in0.0 mm 0.00 in/hr0.0 mm/hr 0.01 in0.3 mm
09:07 PM 37.9°F3.3°C 36.4°F2.4°C 94% 2.3 mph E3.7 kmh E 4.7 mph7.6 kmh 29.58 in1001.7 mb 0.00 in0.0 mm 0.00 in/hr0.0 mm/hr 0.01 in0.3 mm
09:17 PM 37.8°F3.2°C 36.2°F2.3°C 94% 0.8 mph SE1.3 kmh SE 3.4 mph5.5 kmh 29.57 in1001.4 mb 0.00 in0.0 mm 0.00 in/hr0.0 mm/hr 0.01 in0.3 mm
09:27 PM 37.4°F3.0°C 35.8°F2.1°C 94% Calm Calm -- 29.57 in1001.4 mb 0.00 in0.0 mm 0.00 in/hr0.0 mm/hr 0.01 in0.3 mm
09:37 PM 37.0°F2.8°C 35.5°F1.9°C 94% 0.9 mph SSE1.4 kmh SSE 2.3 mph3.7 kmh 29.56 in1001.0 mb 0.00 in0.0 mm 0.00 in/hr0.0 mm/hr 0.01 in0.3 mm
09:47 PM 37.2°F2.9°C 35.7°F2.1°C 94% 3.0 mph SE4.8 kmh SE 4.7 mph7.6 kmh 29.55 in1000.7 mb 0.00 in0.0 mm 0.00 in/hr0.0 mm/hr 0.01 in0.3 mm
09:57 PM 37.2°F2.9°C 35.7°F2.1°C 94% 2.0 mph E3.2 kmh E 2.3 mph3.7 kmh 29.55 in1000.7 mb 0.00 in0.0 mm 0.00 in/hr0.0 mm/hr 0.01 in0.3 mm
10:07 PM 36.9°F2.7°C 35.3°F1.8°C 94% 1.4 mph ENE2.3 kmh ENE 3.4 mph5.5 kmh 29.54 in1000.3 mb 0.00 in0.0 mm 0.00 in/hr0.0 mm/hr 0.01 in0.3 mm
10:27 PM 36.9°F2.7°C 35.3°F1.8°C 94% 1.3 mph SE2.1 kmh SE 2.3 mph3.7 kmh 29.52 in999.7 mb 0.00 in0.0 mm 0.00 in/hr0.0 mm/hr 0.01 in0.3 mm
10:37 PM 36.7°F2.6°C 35.1°F1.7°C 94% 0.7 mph SE1.1 kmh SE 2.3 mph3.7 kmh 29.52 in999.7 mb 0.00 in0.0 mm 0.00 in/hr0.0 mm/hr 0.01 in0.3 mm
10:47 PM 36.5°F2.5°C 34.9°F1.6°C 94% 0.8 mph S1.3 kmh S 2.3 mph3.7 kmh 29.51 in999.3 mb 0.00 in0.0 mm 0.00 in/hr0.0 mm/hr 0.01 in0.3 mm
10:57 PM 36.3°F2.4°C 34.8°F1.6°C 94% 0.4 mph SSE0.6 kmh SSE 1.0 mph1.6 kmh 29.50 in999.0 mb 0.00 in0.0 mm 0.00 in/hr0.0 mm/hr 0.01 in0.3 mm
11:07 PM 36.1°F2.3°C 34.6°F1.4°C 94% 1.3 mph SE2.1 kmh SE 2.3 mph3.7 kmh 29.50 in999.0 mb 0.00 in0.0 mm 0.00 in/hr0.0 mm/hr 0.01 in0.3 mm
11:17 PM 35.8°F2.1°C 34.2°F1.2°C 94% Calm Calm -- 29.49 in998.6 mb 0.00 in0.0 mm 0.00 in/hr0.0 mm/hr 0.01 in0.3 mm
11:27 PM 35.2°F1.8°C 33.7°F0.9°C 94% Calm Calm -- 29.49 in998.6 mb 0.00 in0.0 mm 0.00 in/hr0.0 mm/hr 0.01 in0.3 mm
11:37 PM 35.2°F1.8°C 34.0°F1.1°C 95% 1.0 mph S1.6 kmh S 2.3 mph3.7 kmh 29.49 in998.6 mb 0.00 in0.0 mm 0.00 in/hr0.0 mm/hr 0.01 in0.3 mm
11:47 PM 35.4°F1.9°C 34.1°F1.2°C 95% 0.9 mph S1.4 kmh S 2.3 mph3.7 kmh 29.48 in998.3 mb 0.00 in0.0 mm 0.00 in/hr0.0 mm/hr 0.01 in0.3 mm
11:57 PM 35.2°F1.8°C 34.0°F1.1°C 95% 0.8 mph S1.3 kmh S 1.0 mph1.6 kmh 29.47 in998.0 mb 0.00 in0.0 mm 0.00 in/hr0.0 mm/hr 0.01 in0.3 mm